sensor_id;sensor_type;location;lat;lon;timestamp;temperature;humidity
16289;DHT22;26089;43.538;5.250;2022-10-23T00:00:17;20.00;99.90
16289;DHT22;26089;43.538;5.250;2022-10-23T00:02:44;20.00;99.90
16289;DHT22;26089;43.538;5.250;2022-10-23T00:05:17;20.00;99.90
16289;DHT22;26089;43.538;5.250;2022-10-23T00:07:47;20.10;99.90
16289;DHT22;26089;43.538;5.250;2022-10-23T00:10:16;20.10;99.90
16289;DHT22;26089;43.538;5.250;2022-10-23T00:12:44;20.00;99.90
16289;DHT22;26089;43.538;5.250;2022-10-23T00:15:12;20.00;99.90
16289;DHT22;26089;43.538;5.250;2022-10-23T00:17:39;20.10;99.90
16289;DHT22;26089;43.538;5.250;2022-10-23T00:20:07;20.10;99.90
16289;DHT22;26089;43.538;5.250;2022-10-23T00:22:35;20.10;99.90
16289;DHT22;26089;43.538;5.250;2022-10-23T00:25:02;20.00;99.90
16289;DHT22;26089;43.538;5.250;2022-10-23T00:27:32;20.10;99.90
16289;DHT22;26089;43.538;5.250;2022-10-23T00:29:59;20.10;99.90
16289;DHT22;26089;43.538;5.250;2022-10-23T00:32:26;20.00;99.90
16289;DHT22;26089;43.538;5.250;2022-10-23T00:34:53;20.00;99.90
16289;DHT22;26089;43.538;5.250;2022-10-23T00:37:20;20.00;99.90
16289;DHT22;26089;43.538;5.250;2022-10-23T00:39:47;20.00;99.90
16289;DHT22;26089;43.538;5.250;2022-10-23T00:42:15;19.90;99.90
16289;DHT22;26089;43.538;5.250;2022-10-23T00:45:09;19.90;99.90
16289;DHT22;26089;43.538;5.250;2022-10-23T00:47:36;19.90;99.90
16289;DHT22;26089;43.538;5.250;2022-10-23T00:50:05;19.90;99.90
16289;DHT22;26089;43.538;5.250;2022-10-23T00:52:32;19.90;99.90
16289;DHT22;26089;43.538;5.250;2022-10-23T00:55:01;19.90;99.90
16289;DHT22;26089;43.538;5.250;2022-10-23T00:57:28;19.80;99.90
16289;DHT22;26089;43.538;5.250;2022-10-23T00:59:55;19.80;99.90
16289;DHT22;26089;43.538;5.250;2022-10-23T01:02:24;19.70;99.90
16289;DHT22;26089;43.538;5.250;2022-10-23T01:04:51;19.60;99.90
16289;DHT22;26089;43.538;5.250;2022-10-23T01:07:23;19.50;99.90
16289;DHT22;26089;43.538;5.250;2022-10-23T01:09:58;19.40;99.90
16289;DHT22;26089;43.538;5.250;2022-10-23T01:12:32;19.50;99.90
16289;DHT22;26089;43.538;5.250;2022-10-23T01:15:06;19.50;99.90
16289;DHT22;26089;43.538;5.250;2022-10-23T01:17:39;19.50;99.90
16289;DHT22;26089;43.538;5.250;2022-10-23T01:20:18;19.50;99.90
16289;DHT22;26089;43.538;5.250;2022-10-23T01:23:16;19.60;99.90
16289;DHT22;26089;43.538;5.250;2022-10-23T01:26:01;19.60;99.90
16289;DHT22;26089;43.538;5.250;2022-10-23T01:28:35;19.70;99.90
16289;DHT22;26089;43.538;5.250;2022-10-23T01:31:06;19.70;99.90
16289;DHT22;26089;43.538;5.250;2022-10-23T01:33:39;19.70;99.90
16289;DHT22;26089;43.538;5.250;2022-10-23T01:36:11;19.80;99.90
16289;DHT22;26089;43.538;5.250;2022-10-23T01:38:42;19.70;99.90
16289;DHT22;26089;43.538;5.250;2022-10-23T01:41:12;19.70;99.90
16289;DHT22;26089;43.538;5.250;2022-10-23T01:43:44;19.70;99.90
16289;DHT22;26089;43.538;5.250;2022-10-23T01:46:14;19.60;99.90
16289;DHT22;26089;43.538;5.250;2022-10-23T01:48:45;19.60;99.90
16289;DHT22;26089;43.538;5.250;2022-10-23T01:51:13;19.60;99.90
16289;DHT22;26089;43.538;5.250;2022-10-23T01:53:42;19.60;99.90
16289;DHT22;26089;43.538;5.250;2022-10-23T01:56:16;19.50;99.90
16289;DHT22;26089;43.538;5.250;2022-10-23T01:58:48;19.50;99.90
16289;DHT22;26089;43.538;5.250;2022-10-23T02:01:17;19.60;99.90
16289;DHT22;26089;43.538;5.250;2022-10-23T02:03:47;19.50;99.90
16289;DHT22;26089;43.538;5.250;2022-10-23T02:06:15;19.50;99.90
16289;DHT22;26089;43.538;5.250;2022-10-23T02:08:42;19.50;99.90
16289;DHT22;26089;43.538;5.250;2022-10-23T02:11:10;19.50;99.90
16289;DHT22;26089;43.538;5.250;2022-10-23T02:13:43;19.50;99.90
16289;DHT22;26089;43.538;5.250;2022-10-23T02:16:18;19.50;99.90
16289;DHT22;26089;43.538;5.250;2022-10-23T02:18:53;19.50;99.90
16289;DHT22;26089;43.538;5.250;2022-10-23T02:21:28;19.40;99.90
16289;DHT22;26089;43.538;5.250;2022-10-23T02:24:01;19.30;99.90
16289;DHT22;26089;43.538;5.250;2022-10-23T02:26:34;19.30;99.90
16289;DHT22;26089;43.538;5.250;2022-10-23T02:29:07;19.20;99.90
16289;DHT22;26089;43.538;5.250;2022-10-23T02:31:37;19.20;99.90
16289;DHT22;26089;43.538;5.250;2022-10-23T02:34:04;19.20;99.90
16289;DHT22;26089;43.538;5.250;2022-10-23T02:36:31;19.20;99.90
16289;DHT22;26089;43.538;5.250;2022-10-23T02:38:58;19.20;99.90
16289;DHT22;26089;43.538;5.250;2022-10-23T02:41:34;19.10;99.90
16289;DHT22;26089;43.538;5.250;2022-10-23T02:46:59;18.90;99.90
16289;DHT22;26089;43.538;5.250;2022-10-23T02:49:36;19.00;99.90
16289;DHT22;26089;43.538;5.250;2022-10-23T02:52:10;19.00;99.90
16289;DHT22;26089;43.538;5.250;2022-10-23T02:55:01;19.10;99.90
16289;DHT22;26089;43.538;5.250;2022-10-23T02:57:34;19.20;99.90
16289;DHT22;26089;43.538;5.250;2022-10-23T03:00:05;19.20;99.90
16289;DHT22;26089;43.538;5.250;2022-10-23T03:02:38;19.20;99.90
16289;DHT22;26089;43.538;5.250;2022-10-23T03:05:08;19.20;99.90
16289;DHT22;26089;43.538;5.250;2022-10-23T03:07:37;19.10;99.90
16289;DHT22;26089;43.538;5.250;2022-10-23T03:10:05;19.00;99.90
16289;DHT22;26089;43.538;5.250;2022-10-23T03:12:32;19.10;99.90
16289;DHT22;26089;43.538;5.250;2022-10-23T03:14:59;19.10;99.90
16289;DHT22;26089;43.538;5.250;2022-10-23T03:17:26;19.10;99.90
16289;DHT22;26089;43.538;5.250;2022-10-23T03:19:55;19.20;99.90
16289;DHT22;26089;43.538;5.250;2022-10-23T03:22:22;19.20;99.90
16289;DHT22;26089;43.538;5.250;2022-10-23T03:24:49;19.30;99.90
16289;DHT22;26089;43.538;5.250;2022-10-23T03:27:16;19.30;99.90
16289;DHT22;26089;43.538;5.250;2022-10-23T03:29:43;19.30;99.90
16289;DHT22;26089;43.538;5.250;2022-10-23T03:32:10;19.40;99.90
16289;DHT22;26089;43.538;5.250;2022-10-23T03:34:37;19.40;99.90
16289;DHT22;26089;43.538;5.250;2022-10-23T03:37:05;19.50;99.90
16289;DHT22;26089;43.538;5.250;2022-10-23T03:39:32;19.50;99.90
16289;DHT22;26089;43.538;5.250;2022-10-23T03:41:59;19.50;99.90
16289;DHT22;26089;43.538;5.250;2022-10-23T03:44:26;19.50;99.90
16289;DHT22;26089;43.538;5.250;2022-10-23T03:46:55;19.50;99.90
16289;DHT22;26089;43.538;5.250;2022-10-23T03:49:22;19.60;99.90
16289;DHT22;26089;43.538;5.250;2022-10-23T03:51:49;19.60;99.90
16289;DHT22;26089;43.538;5.250;2022-10-23T03:54:20;19.60;99.90
16289;DHT22;26089;43.538;5.250;2022-10-23T03:56:48;19.60;99.90
16289;DHT22;26089;43.538;5.250;2022-10-23T03:59:15;19.60;99.90
16289;DHT22;26089;43.538;5.250;2022-10-23T04:01:42;19.60;99.90
16289;DHT22;26089;43.538;5.250;2022-10-23T04:04:10;19.60;99.90
16289;DHT22;26089;43.538;5.250;2022-10-23T04:06:37;19.70;99.90
16289;DHT22;26089;43.538;5.250;2022-10-23T04:09:04;19.80;99.90
16289;DHT22;26089;43.538;5.250;2022-10-23T04:11:33;19.70;99.90
16289;DHT22;26089;43.538;5.250;2022-10-23T04:14:00;19.70;99.90
16289;DHT22;26089;43.538;5.250;2022-10-23T04:16:27;19.60;99.90
16289;DHT22;26089;43.538;5.250;2022-10-23T04:18:54;19.60;99.90
16289;DHT22;26089;43.538;5.250;2022-10-23T04:21:21;19.60;99.90
16289;DHT22;26089;43.538;5.250;2022-10-23T04:23:48;19.70;99.90
16289;DHT22;26089;43.538;5.250;2022-10-23T04:26:15;19.70;99.90
16289;DHT22;26089;43.538;5.250;2022-10-23T04:28:43;19.70;99.90
16289;DHT22;26089;43.538;5.250;2022-10-23T04:31:11;19.70;99.90
16289;DHT22;26089;43.538;5.250;2022-10-23T04:33:38;19.70;99.90
16289;DHT22;26089;43.538;5.250;2022-10-23T04:36:05;19.70;99.90
16289;DHT22;26089;43.538;5.250;2022-10-23T04:38:33;19.80;99.90
16289;DHT22;26089;43.538;5.250;2022-10-23T04:41:00;19.80;99.90
16289;DHT22;26089;43.538;5.250;2022-10-23T04:43:26;19.90;99.90
16289;DHT22;26089;43.538;5.250;2022-10-23T04:45:55;20.00;99.90
16289;DHT22;26089;43.538;5.250;2022-10-23T04:48:22;20.00;99.90
16289;DHT22;26089;43.538;5.250;2022-10-23T04:50:56;20.00;99.90
16289;DHT22;26089;43.538;5.250;2022-10-23T04:53:24;20.00;99.90
16289;DHT22;26089;43.538;5.250;2022-10-23T04:55:53;20.00;99.90
16289;DHT22;26089;43.538;5.250;2022-10-23T04:58:20;20.00;99.90
16289;DHT22;26089;43.538;5.250;2022-10-23T05:00:48;20.00;99.90
16289;DHT22;26089;43.538;5.250;2022-10-23T05:03:17;19.90;99.90
16289;DHT22;26089;43.538;5.250;2022-10-23T05:05:44;19.90;99.90
16289;DHT22;26089;43.538;5.250;2022-10-23T05:08:12;19.90;99.90
16289;DHT22;26089;43.538;5.250;2022-10-23T05:10:39;20.00;99.90
16289;DHT22;26089;43.538;5.250;2022-10-23T05:13:06;19.90;99.90
16289;DHT22;26089;43.538;5.250;2022-10-23T05:15:33;19.90;99.90
16289;DHT22;26089;43.538;5.250;2022-10-23T05:18:06;19.90;99.90
16289;DHT22;26089;43.538;5.250;2022-10-23T05:20:37;19.90;99.90
16289;DHT22;26089;43.538;5.250;2022-10-23T05:23:07;20.00;99.90
16289;DHT22;26089;43.538;5.250;2022-10-23T05:25:35;20.00;99.90
16289;DHT22;26089;43.538;5.250;2022-10-23T05:28:03;20.10;99.90
16289;DHT22;26089;43.538;5.250;2022-10-23T05:30:30;20.00;99.90
16289;DHT22;26089;43.538;5.250;2022-10-23T05:32:58;20.00;99.90
16289;DHT22;26089;43.538;5.250;2022-10-23T05:35:26;20.00;99.90
16289;DHT22;26089;43.538;5.250;2022-10-23T05:37:57;20.00;99.90
16289;DHT22;26089;43.538;5.250;2022-10-23T05:40:25;20.10;99.90
16289;DHT22;26089;43.538;5.250;2022-10-23T05:42:52;20.10;99.90
16289;DHT22;26089;43.538;5.250;2022-10-23T05:45:19;20.10;99.90
16289;DHT22;26089;43.538;5.250;2022-10-23T05:47:47;20.20;99.90
16289;DHT22;26089;43.538;5.250;2022-10-23T05:50:14;20.20;99.90
16289;DHT22;26089;43.538;5.250;2022-10-23T05:52:45;20.20;99.90
16289;DHT22;26089;43.538;5.250;2022-10-23T05:55:14;20.20;99.90
16289;DHT22;26089;43.538;5.250;2022-10-23T05:57:41;20.20;99.90
16289;DHT22;26089;43.538;5.250;2022-10-23T06:00:09;20.20;99.90
16289;DHT22;26089;43.538;5.250;2022-10-23T06:02:37;20.20;99.90
16289;DHT22;26089;43.538;5.250;2022-10-23T06:05:04;20.20;99.90
16289;DHT22;26089;43.538;5.250;2022-10-23T06:07:31;20.20;99.90
16289;DHT22;26089;43.538;5.250;2022-10-23T06:09:58;20.20;99.90
16289;DHT22;26089;43.538;5.250;2022-10-23T06:12:27;20.30;99.90
16289;DHT22;26089;43.538;5.250;2022-10-23T06:14:54;20.30;99.90
16289;DHT22;26089;43.538;5.250;2022-10-23T06:17:21;20.30;99.90
16289;DHT22;26089;43.538;5.250;2022-10-23T06:19:48;20.40;99.90
16289;DHT22;26089;43.538;5.250;2022-10-23T06:22:15;20.40;99.90
16289;DHT22;26089;43.538;5.250;2022-10-23T06:24:42;20.50;99.90
16289;DHT22;26089;43.538;5.250;2022-10-23T06:27:09;20.50;99.90
16289;DHT22;26089;43.538;5.250;2022-10-23T06:29:37;20.50;99.90
16289;DHT22;26089;43.538;5.250;2022-10-23T06:32:06;20.50;99.90
16289;DHT22;26089;43.538;5.250;2022-10-23T06:34:33;20.50;99.90
16289;DHT22;26089;43.538;5.250;2022-10-23T06:37:00;20.50;99.90
16289;DHT22;26089;43.538;5.250;2022-10-23T06:39:27;20.50;99.90
16289;DHT22;26089;43.538;5.250;2022-10-23T06:41:54;20.50;99.90
16289;DHT22;26089;43.538;5.250;2022-10-23T06:44:21;20.60;99.90
16289;DHT22;26089;43.538;5.250;2022-10-23T06:46:49;20.70;99.90
16289;DHT22;26089;43.538;5.250;2022-10-23T06:49:16;20.70;99.90
16289;DHT22;26089;43.538;5.250;2022-10-23T06:51:43;20.80;99.90
16289;DHT22;26089;43.538;5.250;2022-10-23T06:54:11;20.80;99.90
16289;DHT22;26089;43.538;5.250;2022-10-23T06:56:38;20.80;99.90
16289;DHT22;26089;43.538;5.250;2022-10-23T06:59:05;20.80;99.90
16289;DHT22;26089;43.538;5.250;2022-10-23T07:01:33;20.80;99.90
16289;DHT22;26089;43.538;5.250;2022-10-23T07:04:02;20.70;99.90
16289;DHT22;26089;43.538;5.250;2022-10-23T07:06:28;20.70;99.90
16289;DHT22;26089;43.538;5.250;2022-10-23T07:08:55;20.70;99.90
16289;DHT22;26089;43.538;5.250;2022-10-23T07:11:22;20.70;99.90
16289;DHT22;26089;43.538;5.250;2022-10-23T07:13:49;20.70;99.90
16289;DHT22;26089;43.538;5.250;2022-10-23T07:16:18;20.70;99.90
16289;DHT22;26089;43.538;5.250;2022-10-23T07:18:46;20.60;99.90
16289;DHT22;26089;43.538;5.250;2022-10-23T07:21:15;20.70;99.90
16289;DHT22;26089;43.538;5.250;2022-10-23T07:23:42;20.80;99.90
16289;DHT22;26089;43.538;5.250;2022-10-23T07:26:10;20.80;99.90
16289;DHT22;26089;43.538;5.250;2022-10-23T07:28:39;20.70;99.90
16289;DHT22;26089;43.538;5.250;2022-10-23T07:31:07;20.80;99.90
16289;DHT22;26089;43.538;5.250;2022-10-23T07:33:34;20.80;99.90
16289;DHT22;26089;43.538;5.250;2022-10-23T07:36:03;20.90;99.90
16289;DHT22;26089;43.538;5.250;2022-10-23T07:38:32;20.90;99.90
16289;DHT22;26089;43.538;5.250;2022-10-23T07:41:00;20.90;99.90
16289;DHT22;26089;43.538;5.250;2022-10-23T07:43:27;20.90;99.90
16289;DHT22;26089;43.538;5.250;2022-10-23T07:45:54;21.00;99.90
16289;DHT22;26089;43.538;5.250;2022-10-23T07:48:21;21.00;99.90
16289;DHT22;26089;43.538;5.250;2022-10-23T07:50:49;21.10;99.90
16289;DHT22;26089;43.538;5.250;2022-10-23T07:53:19;21.10;99.90
16289;DHT22;26089;43.538;5.250;2022-10-23T07:55:52;21.10;99.90
16289;DHT22;26089;43.538;5.250;2022-10-23T07:58:19;21.10;99.90
16289;DHT22;26089;43.538;5.250;2022-10-23T08:00:48;21.10;99.90
16289;DHT22;26089;43.538;5.250;2022-10-23T08:03:19;21.20;99.90
16289;DHT22;26089;43.538;5.250;2022-10-23T08:05:46;21.20;99.90
16289;DHT22;26089;43.538;5.250;2022-10-23T08:08:13;21.30;99.90
16289;DHT22;26089;43.538;5.250;2022-10-23T08:10:40;21.20;99.90
16289;DHT22;26089;43.538;5.250;2022-10-23T08:13:10;21.30;99.90
16289;DHT22;26089;43.538;5.250;2022-10-23T08:15:38;21.30;99.90
16289;DHT22;26089;43.538;5.250;2022-10-23T08:18:06;21.30;99.90
16289;DHT22;26089;43.538;5.250;2022-10-23T08:20:37;21.30;99.90
16289;DHT22;26089;43.538;5.250;2022-10-23T08:23:04;21.40;99.90
16289;DHT22;26089;43.538;5.250;2022-10-23T08:25:32;21.40;99.90
16289;DHT22;26089;43.538;5.250;2022-10-23T08:27:59;21.50;99.90
16289;DHT22;26089;43.538;5.250;2022-10-23T08:30:28;21.50;99.90
16289;DHT22;26089;43.538;5.250;2022-10-23T08:32:55;21.50;99.90
16289;DHT22;26089;43.538;5.250;2022-10-23T08:35:22;21.60;99.90
16289;DHT22;26089;43.538;5.250;2022-10-23T08:37:49;21.60;99.90
16289;DHT22;26089;43.538;5.250;2022-10-23T08:40:17;21.60;99.90
16289;DHT22;26089;43.538;5.250;2022-10-23T08:42:52;21.70;99.90
16289;DHT22;26089;43.538;5.250;2022-10-23T08:45:30;21.80;99.90
16289;DHT22;26089;43.538;5.250;2022-10-23T08:48:03;21.90;99.90
16289;DHT22;26089;43.538;5.250;2022-10-23T08:50:35;22.00;99.90
16289;DHT22;26089;43.538;5.250;2022-10-23T08:53:12;22.00;99.90
16289;DHT22;26089;43.538;5.250;2022-10-23T08:55:42;22.10;99.90
16289;DHT22;26089;43.538;5.250;2022-10-23T08:58:14;22.10;99.90
16289;DHT22;26089;43.538;5.250;2022-10-23T09:00:46;22.20;99.90
16289;DHT22;26089;43.538;5.250;2022-10-23T09:03:13;22.30;99.90
16289;DHT22;26089;43.538;5.250;2022-10-23T09:06:00;22.40;99.90
16289;DHT22;26089;43.538;5.250;2022-10-23T09:08:46;22.40;99.90
16289;DHT22;26089;43.538;5.250;2022-10-23T09:11:18;22.40;99.90
16289;DHT22;26089;43.538;5.250;2022-10-23T09:14:08;22.50;99.90
16289;DHT22;26089;43.538;5.250;2022-10-23T09:16:55;22.60;99.90
16289;DHT22;26089;43.538;5.250;2022-10-23T09:19:27;22.80;99.90
16289;DHT22;26089;43.538;5.250;2022-10-23T09:21:55;23.00;99.90
16289;DHT22;26089;43.538;5.250;2022-10-23T09:24:25;23.20;99.90
16289;DHT22;26089;43.538;5.250;2022-10-23T09:26:56;23.30;99.90
16289;DHT22;26089;43.538;5.250;2022-10-23T09:29:25;23.40;99.90
16289;DHT22;26089;43.538;5.250;2022-10-23T09:31:55;23.40;99.90
16289;DHT22;26089;43.538;5.250;2022-10-23T09:34:24;23.50;99.90
16289;DHT22;26089;43.538;5.250;2022-10-23T09:36:53;23.60;99.90
16289;DHT22;26089;43.538;5.250;2022-10-23T09:39:23;23.70;99.90
16289;DHT22;26089;43.538;5.250;2022-10-23T09:41:51;23.80;99.90
16289;DHT22;26089;43.538;5.250;2022-10-23T09:44:20;23.90;99.90
16289;DHT22;26089;43.538;5.250;2022-10-23T09:46:49;24.00;99.90
16289;DHT22;26089;43.538;5.250;2022-10-23T09:49:20;24.10;99.90
16289;DHT22;26089;43.538;5.250;2022-10-23T09:51:53;24.10;99.90
16289;DHT22;26089;43.538;5.250;2022-10-23T09:54:22;24.10;99.90
16289;DHT22;26089;43.538;5.250;2022-10-23T09:56:51;24.20;99.90
16289;DHT22;26089;43.538;5.250;2022-10-23T09:59:22;24.30;99.90
16289;DHT22;26089;43.538;5.250;2022-10-23T10:01:52;24.30;99.90
16289;DHT22;26089;43.538;5.250;2022-10-23T10:04:32;24.40;99.90
16289;DHT22;26089;43.538;5.250;2022-10-23T10:07:01;24.60;99.90
16289;DHT22;26089;43.538;5.250;2022-10-23T10:09:28;24.70;99.90
16289;DHT22;26089;43.538;5.250;2022-10-23T10:12:01;24.90;99.90
16289;DHT22;26089;43.538;5.250;2022-10-23T10:14:52;25.00;99.90
16289;DHT22;26089;43.538;5.250;2022-10-23T10:17:29;25.20;99.90
16289;DHT22;26089;43.538;5.250;2022-10-23T10:20:11;25.30;99.90
16289;DHT22;26089;43.538;5.250;2022-10-23T10:22:45;25.30;99.90
16289;DHT22;26089;43.538;5.250;2022-10-23T10:25:18;25.30;99.90
16289;DHT22;26089;43.538;5.250;2022-10-23T10:27:55;25.50;99.90
16289;DHT22;26089;43.538;5.250;2022-10-23T10:30:24;25.50;99.90
16289;DHT22;26089;43.538;5.250;2022-10-23T10:32:57;25.60;99.90
16289;DHT22;26089;43.538;5.250;2022-10-23T10:35:36;25.80;99.90
16289;DHT22;26089;43.538;5.250;2022-10-23T10:38:34;25.90;99.90
16289;DHT22;26089;43.538;5.250;2022-10-23T10:41:31;26.10;99.90
16289;DHT22;26089;43.538;5.250;2022-10-23T10:44:21;26.10;99.90
16289;DHT22;26089;43.538;5.250;2022-10-23T10:46:54;26.10;99.90
16289;DHT22;26089;43.538;5.250;2022-10-23T10:49:26;26.00;99.90
16289;DHT22;26089;43.538;5.250;2022-10-23T10:52:02;25.90;99.90
16289;DHT22;26089;43.538;5.250;2022-10-23T10:54:44;25.90;99.90
16289;DHT22;26089;43.538;5.250;2022-10-23T10:57:19;25.90;99.90
16289;DHT22;26089;43.538;5.250;2022-10-23T10:59:50;26.00;99.90
16289;DHT22;26089;43.538;5.250;2022-10-23T11:02:25;26.00;99.90
16289;DHT22;26089;43.538;5.250;2022-10-23T11:04:58;26.20;99.90
16289;DHT22;26089;43.538;5.250;2022-10-23T11:07:33;26.30;99.90
16289;DHT22;26089;43.538;5.250;2022-10-23T11:10:03;26.60;99.90
16289;DHT22;26089;43.538;5.250;2022-10-23T11:12:31;26.80;99.90
16289;DHT22;26089;43.538;5.250;2022-10-23T11:14:58;26.90;99.90
16289;DHT22;26089;43.538;5.250;2022-10-23T11:17:29;27.00;99.90
16289;DHT22;26089;43.538;5.250;2022-10-23T11:20:02;27.20;99.90
16289;DHT22;26089;43.538;5.250;2022-10-23T11:22:35;27.30;99.90
16289;DHT22;26089;43.538;5.250;2022-10-23T11:25:24;27.30;99.90
16289;DHT22;26089;43.538;5.250;2022-10-23T11:28:18;27.10;99.90
16289;DHT22;26089;43.538;5.250;2022-10-23T11:31:01;27.00;99.90
16289;DHT22;26089;43.538;5.250;2022-10-23T11:33:49;26.70;99.90
16289;DHT22;26089;43.538;5.250;2022-10-23T11:36:20;26.60;99.90
16289;DHT22;26089;43.538;5.250;2022-10-23T11:39:06;26.50;99.90
16289;DHT22;26089;43.538;5.250;2022-10-23T11:41:48;26.60;99.90
16289;DHT22;26089;43.538;5.250;2022-10-23T11:44:26;26.80;99.90
16289;DHT22;26089;43.538;5.250;2022-10-23T11:47:00;27.10;99.90
16289;DHT22;26089;43.538;5.250;2022-10-23T11:49:28;27.60;99.90
16289;DHT22;26089;43.538;5.250;2022-10-23T11:52:03;28.00;99.90
16289;DHT22;26089;43.538;5.250;2022-10-23T11:54:32;28.20;99.90
16289;DHT22;26089;43.538;5.250;2022-10-23T11:57:09;28.50;99.90
16289;DHT22;26089;43.538;5.250;2022-10-23T11:59:49;28.70;99.90
16289;DHT22;26089;43.538;5.250;2022-10-23T12:02:25;28.70;99.90
16289;DHT22;26089;43.538;5.250;2022-10-23T12:04:54;28.50;99.90
16289;DHT22;26089;43.538;5.250;2022-10-23T12:07:23;28.40;99.90
16289;DHT22;26089;43.538;5.250;2022-10-23T12:09:55;28.40;99.90
16289;DHT22;26089;43.538;5.250;2022-10-23T12:12:31;28.40;99.90
16289;DHT22;26089;43.538;5.250;2022-10-23T12:15:18;28.40;99.90
16289;DHT22;26089;43.538;5.250;2022-10-23T12:17:47;28.20;99.90
16289;DHT22;26089;43.538;5.250;2022-10-23T12:20:24;27.90;99.90
16289;DHT22;26089;43.538;5.250;2022-10-23T12:23:11;27.80;99.90
16289;DHT22;26089;43.538;5.250;2022-10-23T12:25:53;27.80;99.90
16289;DHT22;26089;43.538;5.250;2022-10-23T12:28:30;27.80;99.90
16289;DHT22;26089;43.538;5.250;2022-10-23T12:31:07;27.70;99.90
16289;DHT22;26089;43.538;5.250;2022-10-23T12:33:47;27.70;99.90
16289;DHT22;26089;43.538;5.250;2022-10-23T12:36:32;27.80;99.90
16289;DHT22;26089;43.538;5.250;2022-10-23T12:39:24;27.80;99.90
16289;DHT22;26089;43.538;5.250;2022-10-23T12:41:53;27.80;99.90
16289;DHT22;26089;43.538;5.250;2022-10-23T12:44:20;27.70;99.90
16289;DHT22;26089;43.538;5.250;2022-10-23T12:46:50;27.60;99.90
16289;DHT22;26089;43.538;5.250;2022-10-23T12:49:21;27.60;99.90
16289;DHT22;26089;43.538;5.250;2022-10-23T12:51:54;27.60;99.90
16289;DHT22;26089;43.538;5.250;2022-10-23T12:54:21;27.50;99.90
16289;DHT22;26089;43.538;5.250;2022-10-23T12:56:49;27.60;99.90
16289;DHT22;26089;43.538;5.250;2022-10-23T12:59:19;27.70;99.90
16289;DHT22;26089;43.538;5.250;2022-10-23T13:01:48;27.70;99.90
16289;DHT22;26089;43.538;5.250;2022-10-23T13:04:26;27.60;99.90
16289;DHT22;26089;43.538;5.250;2022-10-23T13:06:56;27.60;99.90
16289;DHT22;26089;43.538;5.250;2022-10-23T13:09:28;27.50;99.90
16289;DHT22;26089;43.538;5.250;2022-10-23T13:11:55;27.50;99.90
16289;DHT22;26089;43.538;5.250;2022-10-23T13:14:32;27.40;99.90
16289;DHT22;26089;43.538;5.250;2022-10-23T13:17:01;27.40;99.90
16289;DHT22;26089;43.538;5.250;2022-10-23T13:19:29;27.40;99.90
16289;DHT22;26089;43.538;5.250;2022-10-23T13:21:57;27.40;99.90
16289;DHT22;26089;43.538;5.250;2022-10-23T13:24:26;27.40;99.90
16289;DHT22;26089;43.538;5.250;2022-10-23T13:26:54;27.40;99.90
16289;DHT22;26089;43.538;5.250;2022-10-23T13:29:23;27.40;99.90
16289;DHT22;26089;43.538;5.250;2022-10-23T13:31:52;27.50;99.90
16289;DHT22;26089;43.538;5.250;2022-10-23T13:34:25;27.50;99.90
16289;DHT22;26089;43.538;5.250;2022-10-23T13:36:55;27.50;99.90
16289;DHT22;26089;43.538;5.250;2022-10-23T13:39:24;27.60;99.90
16289;DHT22;26089;43.538;5.250;2022-10-23T13:41:52;27.60;99.90
16289;DHT22;26089;43.538;5.250;2022-10-23T13:44:21;27.50;99.90
16289;DHT22;26089;43.538;5.250;2022-10-23T13:46:48;27.50;99.90
16289;DHT22;26089;43.538;5.250;2022-10-23T13:49:18;27.50;99.90
16289;DHT22;26089;43.538;5.250;2022-10-23T13:51:48;27.60;99.90
16289;DHT22;26089;43.538;5.250;2022-10-23T13:54:18;27.60;99.90
16289;DHT22;26089;43.538;5.250;2022-10-23T13:56:45;27.70;99.90
16289;DHT22;26089;43.538;5.250;2022-10-23T13:59:13;27.80;99.90
16289;DHT22;26089;43.538;5.250;2022-10-23T14:01:41;27.80;99.90
16289;DHT22;26089;43.538;5.250;2022-10-23T14:04:09;27.80;99.90
16289;DHT22;26089;43.538;5.250;2022-10-23T14:06:38;27.70;99.90
16289;DHT22;26089;43.538;5.250;2022-10-23T14:09:07;27.60;99.90
16289;DHT22;26089;43.538;5.250;2022-10-23T14:11:34;27.60;99.90
16289;DHT22;26089;43.538;5.250;2022-10-23T14:14:01;27.60;99.90
16289;DHT22;26089;43.538;5.250;2022-10-23T14:16:29;27.50;99.90
16289;DHT22;26089;43.538;5.250;2022-10-23T14:18:56;27.50;99.90
16289;DHT22;26089;43.538;5.250;2022-10-23T14:21:24;27.40;99.90
16289;DHT22;26089;43.538;5.250;2022-10-23T14:23:52;27.40;99.90
16289;DHT22;26089;43.538;5.250;2022-10-23T14:26:21;27.40;99.90
16289;DHT22;26089;43.538;5.250;2022-10-23T14:28:51;27.30;99.90
16289;DHT22;26089;43.538;5.250;2022-10-23T14:31:19;27.20;99.90
16289;DHT22;26089;43.538;5.250;2022-10-23T14:33:50;27.20;99.90
16289;DHT22;26089;43.538;5.250;2022-10-23T14:36:17;27.10;99.90
16289;DHT22;26089;43.538;5.250;2022-10-23T14:38:44;27.00;99.90
16289;DHT22;26089;43.538;5.250;2022-10-23T14:41:15;26.90;99.90
16289;DHT22;26089;43.538;5.250;2022-10-23T14:43:43;26.80;99.90
16289;DHT22;26089;43.538;5.250;2022-10-23T14:46:11;26.70;99.90
16289;DHT22;26089;43.538;5.250;2022-10-23T14:48:39;26.70;99.90
16289;DHT22;26089;43.538;5.250;2022-10-23T14:51:15;26.60;99.90
16289;DHT22;26089;43.538;5.250;2022-10-23T14:53:42;26.50;99.90
16289;DHT22;26089;43.538;5.250;2022-10-23T14:56:09;26.50;99.90
16289;DHT22;26089;43.538;5.250;2022-10-23T14:58:38;26.50;99.90
16289;DHT22;26089;43.538;5.250;2022-10-23T15:01:05;26.50;99.90
16289;DHT22;26089;43.538;5.250;2022-10-23T15:03:32;26.40;99.90
16289;DHT22;26089;43.538;5.250;2022-10-23T15:05:59;26.40;99.90
16289;DHT22;26089;43.538;5.250;2022-10-23T15:08:26;26.40;99.90
16289;DHT22;26089;43.538;5.250;2022-10-23T15:10:53;26.40;99.90
16289;DHT22;26089;43.538;5.250;2022-10-23T15:13:20;26.30;99.90
16289;DHT22;26089;43.538;5.250;2022-10-23T15:15:48;26.20;99.90
16289;DHT22;26089;43.538;5.250;2022-10-23T15:18:15;26.20;99.90
16289;DHT22;26089;43.538;5.250;2022-10-23T15:20:51;26.20;99.90
16289;DHT22;26089;43.538;5.250;2022-10-23T15:23:18;26.20;99.90
16289;DHT22;26089;43.538;5.250;2022-10-23T15:25:53;26.20;99.90
16289;DHT22;26089;43.538;5.250;2022-10-23T15:28:20;26.20;99.90
16289;DHT22;26089;43.538;5.250;2022-10-23T15:30:49;26.20;99.90
16289;DHT22;26089;43.538;5.250;2022-10-23T15:33:16;26.10;99.90
16289;DHT22;26089;43.538;5.250;2022-10-23T15:35:43;26.10;99.90
16289;DHT22;26089;43.538;5.250;2022-10-23T15:38:10;26.10;99.90
16289;DHT22;26089;43.538;5.250;2022-10-23T15:40:37;26.00;99.90
16289;DHT22;26089;43.538;5.250;2022-10-23T15:43:04;26.00;99.90
16289;DHT22;26089;43.538;5.250;2022-10-23T15:45:31;25.90;99.90
16289;DHT22;26089;43.538;5.250;2022-10-23T15:48:00;25.90;99.90
16289;DHT22;26089;43.538;5.250;2022-10-23T15:50:27;25.90;99.90
16289;DHT22;26089;43.538;5.250;2022-10-23T15:52:54;25.90;99.90